Airfield :
LOGIN :

Register | Disclaimer

   EN    FR    IT 

 










Legend :    VFR   Marginal VFR   IFR   Intensive IFR   Very Intensive IFR
Visi :
Ceiling :
>= 8 km
>= 3000ft
5 to 8 km
1000 to 3000 ft
1500m to 5 km
500 to 1000 ft
800 to 1500m
200 to 500 ft
< 800m
< 200 ft
Symbols :   Thunderstorms  Fog  Heavy snow  Heavy precipitations  Wind > 20 kt
SIGMETs :     Misc.  Thunderstorms  Icing  Turbulence  Mountain Waves  Volcanic Ashes






- Airport Elevation : 53 ft
- IATA code : LBC


EDHL - Lübeck

CURRENT METAR :
  • 250850Z VRB04KT CAVOK 23/16 Q1019

EXPIRED METARs :
  • 250820Z 10003KT 040V180 CAVOK 23/16 Q1020
  • 250750Z VRB02KT CAVOK 22/16 Q1020
  • 250720Z 10003KT 040V160 CAVOK 21/16 Q1020
  • 250650Z 09003KT 030V160 CAVOK 20/15 Q1020
  • 250620Z VRB02KT CAVOK 19/15 Q1020
  • 250550Z 07003KT CAVOK 18/14 Q1020
  • 250520Z 08004KT CAVOK 17/15 Q1020
  • 250450Z VRB02KT CAVOK 15/14 Q1020
  • 250420Z 07002KT CAVOK 14/13 Q1020

TAF TAF EDHL
Valid from the 25 at 09:00 until the 25 at 18:00 UTC


250800Z 2509/2518 09003KT CAVOK
BECMG 2512/2514 07008KT



MET'MAP, your aeronautical weather chart ! - Copyright ORBIFLY December 2007 - Disclaimer

ORBIFLY MET'MAP TEAM :

Programming & Development : Alexandra Zaïnal
Original concept : Baudouin d'Aumeries
Technical & hardware support : Manuel Goepfert
Assistance : Marc-Olivier Méhu




SOURCES & CREDITS :

   NOAA